Time;durP1;ratioP1;P1;durP2;ratioP2;P2;SDS_P1;SDS_P2;PMS_P1;PMS_P2;Temp;Humidity;BMP_temperature;BMP_pressure;BME280_temperature;BME280_humidity;BME280_pressure;Samples;Min_cycle;Max_cycle;Signal;HPM_P1;HPM_P2
2021/08/14 00:00:41;;;;;;;3.53;3.23;;;21.90;99.90;;;;;;4985330;28;20420;-75
2021/08/14 00:03:06;;;;;;;4.17;3.37;;;21.90;99.90;;;;;;5001325;28;20414;-75
2021/08/14 00:05:32;;;;;;;3.75;3.45;;;21.90;99.90;;;;;;4984707;28;20998;-75
2021/08/14 00:07:58;;;;;;;5.63;3.30;;;21.90;99.90;;;;;;4953308;28;20495;-75
2021/08/14 00:10:23;;;;;;;3.37;3.07;;;21.90;99.90;;;;;;4952271;28;20400;-75
2021/08/14 00:12:49;;;;;;;3.40;3.10;;;21.80;99.90;;;;;;4968073;28;20422;-75
2021/08/14 00:15:15;;;;;;;4.57;3.30;;;21.80;99.90;;;;;;4984934;28;21167;-75
2021/08/14 00:17:41;;;;;;;3.20;2.90;;;21.80;99.90;;;;;;5002922;28;20398;-77
2021/08/14 00:20:07;;;;;;;3.53;2.75;;;21.80;99.90;;;;;;4997263;28;20399;-76
2021/08/14 00:22:33;;;;;;;3.53;3.00;;;21.80;99.90;;;;;;5000800;28;20459;-77
2021/08/14 00:24:58;;;;;;;3.50;3.10;;;21.80;99.90;;;;;;4998580;28;20919;-77
2021/08/14 00:27:24;;;;;;;3.78;3.00;;;21.80;99.90;;;;;;4985640;28;20393;-77
2021/08/14 00:29:49;;;;;;;2.75;2.55;;;21.80;99.90;;;;;;5003468;28;20397;-76
2021/08/14 00:32:15;;;;;;;3.17;2.87;;;21.80;99.90;;;;;;4994133;28;20447;-76
2021/08/14 00:34:41;;;;;;;2.83;2.60;;;21.80;99.90;;;;;;4955873;28;20385;-76
2021/08/14 00:37:06;;;;;;;3.88;3.38;;;21.80;99.90;;;;;;4984607;28;20935;-77
2021/08/14 00:39:32;;;;;;;3.63;3.20;;;21.80;99.90;;;;;;4967959;28;20953;-76
2021/08/14 00:41:58;;;;;;;3.10;2.17;;;21.80;99.90;;;;;;4981468;28;20400;-76
2021/08/14 00:44:23;;;;;;;3.67;3.38;;;21.80;99.90;;;;;;4980886;28;20449;-76
2021/08/14 00:46:49;;;;;;;2.92;2.72;;;21.80;99.90;;;;;;4968315;28;20906;-76
2021/08/14 00:49:15;;;;;;;3.47;3.17;;;21.80;99.90;;;;;;4971009;28;20832;-76
2021/08/14 00:51:42;;;;;;;3.58;3.28;;;21.80;99.90;;;;;;4985442;28;20397;-77
2021/08/14 00:54:08;;;;;;;2.90;2.70;;;21.80;99.90;;;;;;5004890;28;20392;-77
2021/08/14 00:56:34;;;;;;;2.80;2.60;;;21.80;99.90;;;;;;4986136;28;20404;-77
2021/08/14 00:59:00;;;;;;;3.60;2.83;;;21.80;99.90;;;;;;4968487;28;20402;-76
2021/08/14 01:01:25;;;;;;;2.90;2.70;;;21.80;99.90;;;;;;4959523;28;20476;-76
2021/08/14 01:03:52;;;;;;;3.73;2.77;;;21.80;99.90;;;;;;4987960;28;20405;-77
2021/08/14 01:06:17;;;;;;;3.10;2.87;;;21.80;99.90;;;;;;4972422;28;20776;-79
2021/08/14 01:08:43;;;;;;;3.50;2.97;;;21.80;99.90;;;;;;4985945;28;20415;-77
2021/08/14 01:11:10;;;;;;;5.00;3.27;;;21.80;99.90;;;;;;4971757;28;20390;-77
2021/08/14 01:13:36;;;;;;;3.50;2.78;;;21.80;99.90;;;;;;4969573;28;20409;-77
2021/08/14 01:16:03;;;;;;;4.10;2.90;;;21.80;99.90;;;;;;4979920;28;20428;-76
2021/08/14 01:18:29;;;;;;;2.90;2.65;;;21.80;99.90;;;;;;4984871;28;20407;-77
2021/08/14 01:20:55;;;;;;;3.03;2.83;;;21.80;99.90;;;;;;4967797;28;20406;-77
2021/08/14 01:23:20;;;;;;;4.13;3.05;;;21.80;99.90;;;;;;4961460;28;20473;-76
2021/08/14 01:25:46;;;;;;;2.78;2.58;;;21.80;99.90;;;;;;4985002;28;20480;-76
2021/08/14 01:28:14;;;;;;;3.35;3.05;;;21.70;99.90;;;;;;4967676;28;20411;-77
2021/08/14 01:30:40;;;;;;;3.42;3.13;;;21.70;99.90;;;;;;5014908;28;20418;-76
2021/08/14 01:33:07;;;;;;;3.13;2.72;;;21.70;99.90;;;;;;4966178;28;20449;-76
2021/08/14 01:35:33;;;;;;;3.40;3.10;;;21.70;99.90;;;;;;4967250;28;20744;-77
2021/08/14 01:37:59;;;;;;;3.33;3.00;;;21.70;99.90;;;;;;4983904;28;20393;-78
2021/08/14 01:40:24;;;;;;;3.38;3.08;;;21.60;99.90;;;;;;4970279;28;20408;-77
2021/08/14 01:42:50;;;;;;;3.70;3.40;;;21.70;99.90;;;;;;4969682;28;20401;-77
2021/08/14 01:45:16;;;;;;;3.55;3.22;;;21.60;99.90;;;;;;4985166;28;20404;-77
2021/08/14 01:47:41;;;;;;;5.22;3.72;;;21.60;99.90;;;;;;4987866;28;20419;-75
2021/08/14 01:50:07;;;;;;;3.47;3.17;;;21.60;99.90;;;;;;4996883;28;20398;-77
2021/08/14 01:52:33;;;;;;;3.50;3.08;;;21.50;99.90;;;;;;4999119;28;20617;-76
2021/08/14 01:54:59;;;;;;;3.53;3.23;;;21.50;99.90;;;;;;4978993;28;20692;-78
2021/08/14 01:57:24;;;;;;;3.55;3.20;;;21.50;99.90;;;;;;4986554;28;20441;-77
2021/08/14 01:59:50;;;;;;;3.42;3.13;;;21.40;99.90;;;;;;5003770;28;20500;-77
2021/08/14 02:02:16;;;;;;;3.33;3.03;;;21.40;99.90;;;;;;4966486;28;20407;-77
2021/08/14 02:04:41;;;;;;;2.95;2.55;;;21.40;99.90;;;;;;4964744;28;20396;-78
2021/08/14 02:07:07;;;;;;;3.55;3.00;;;21.40;99.90;;;;;;4982362;28;20408;-77
2021/08/14 02:09:33;;;;;;;3.90;3.20;;;21.40;99.90;;;;;;4995046;28;20868;-77
2021/08/14 02:11:58;;;;;;;3.10;2.90;;;21.40;99.90;;;;;;4985950;28;20905;-79
2021/08/14 02:14:24;;;;;;;3.50;3.20;;;21.40;99.90;;;;;;4968973;28;20389;-77
2021/08/14 02:16:50;;;;;;;3.13;2.50;;;21.30;99.90;;;;;;4969658;28;20761;-76
2021/08/14 02:19:15;;;;;;;3.30;3.00;;;21.30;99.90;;;;;;5007281;28;20397;-76
2021/08/14 02:21:41;;;;;;;2.70;2.50;;;21.30;99.90;;;;;;4979879;28;20403;-76
2021/08/14 02:24:07;;;;;;;3.03;2.73;;;21.30;99.90;;;;;;4968175;28;20404;-76
2021/08/14 02:26:32;;;;;;;3.72;2.53;;;21.30;99.90;;;;;;4994731;28;20412;-79
2021/08/14 02:28:58;;;;;;;3.53;2.95;;;21.30;99.90;;;;;;5000468;28;20424;-78
2021/08/14 02:31:24;;;;;;;2.63;2.43;;;21.30;99.90;;;;;;4982561;28;20397;-78
2021/08/14 02:33:49;;;;;;;2.38;2.20;;;21.30;99.90;;;;;;4965375;28;20435;-77
2021/08/14 02:36:15;;;;;;;3.05;2.85;;;21.30;99.90;;;;;;4982940;28;20971;-77
2021/08/14 02:38:41;;;;;;;4.35;3.03;;;21.30;99.90;;;;;;4964770;28;20941;-76
2021/08/14 02:41:07;;;;;;;2.73;2.43;;;21.30;99.90;;;;;;4992754;28;20412;-77
2021/08/14 02:43:33;;;;;;;2.70;2.50;;;21.30;99.90;;;;;;4966505;28;20397;-77
2021/08/14 02:46:00;;;;;;;2.92;2.72;;;21.30;99.90;;;;;;4978276;28;20454;-77
2021/08/14 02:48:27;;;;;;;2.80;2.60;;;21.30;99.90;;;;;;4988734;28;20399;-77
2021/08/14 02:50:53;;;;;;;3.20;2.85;;;21.20;99.90;;;;;;4970258;28;20484;-77
2021/08/14 02:53:18;;;;;;;3.63;3.20;;;21.20;99.90;;;;;;4975005;28;20486;-76
2021/08/14 02:55:44;;;;;;;2.85;2.65;;;21.20;99.90;;;;;;4969628;28;20410;-76
2021/08/14 02:58:10;;;;;;;2.85;2.65;;;21.10;99.90;;;;;;4980080;28;20811;-76
2021/08/14 03:00:35;;;;;;;3.00;2.70;;;21.10;99.90;;;;;;4987755;28;20790;-76
2021/08/14 03:03:01;;;;;;;3.20;2.85;;;21.10;99.90;;;;;;4988055;28;20435;-76
2021/08/14 03:05:27;;;;;;;3.27;2.90;;;21.00;99.90;;;;;;4993938;28;20388;-77
2021/08/14 03:07:53;;;;;;;3.10;2.80;;;21.00;99.90;;;;;;5003587;28;20417;-77
2021/08/14 03:10:19;;;;;;;2.67;2.47;;;21.00;99.90;;;;;;5002761;28;20957;-76
2021/08/14 03:12:44;;;;;;;2.70;2.50;;;20.90;99.90;;;;;;5001476;28;20387;-77
2021/08/14 03:15:10;;;;;;;2.55;2.35;;;20.90;99.90;;;;;;4990011;28;20393;-77
2021/08/14 03:17:36;;;;;;;2.50;2.30;;;20.90;99.90;;;;;;4966490;28;20424;-77
2021/08/14 03:20:03;;;;;;;2.70;2.50;;;20.90;99.90;;;;;;4953422;28;21113;-77
2021/08/14 03:22:28;;;;;;;2.80;2.60;;;20.90;99.90;;;;;;5005898;28;20398;-76
2021/08/14 03:24:54;;;;;;;2.60;2.40;;;20.80;99.90;;;;;;4987423;28;20428;-77
2021/08/14 03:27:20;;;;;;;2.75;2.40;;;20.80;99.90;;;;;;4983343;28;20541;-76
2021/08/14 03:29:45;;;;;;;3.10;2.70;;;20.80;99.90;;;;;;4989274;28;20400;-77
2021/08/14 03:32:11;;;;;;;3.87;2.77;;;20.70;99.90;;;;;;4969221;28;20978;-77
2021/08/14 03:34:36;;;;;;;2.78;2.58;;;20.70;99.90;;;;;;4982182;28;20414;-77
2021/08/14 03:37:02;;;;;;;2.57;2.37;;;20.70;99.90;;;;;;4968373;28;20401;-77
2021/08/14 03:39:28;;;;;;;3.20;2.90;;;20.70;99.90;;;;;;4981789;28;20400;-77
2021/08/14 03:41:54;;;;;;;3.72;2.80;;;20.70;99.90;;;;;;4964949;28;20529;-77
2021/08/14 03:44:19;;;;;;;2.60;2.40;;;20.60;99.90;;;;;;5000466;28;20401;-76
2021/08/14 03:46:45;;;;;;;2.50;2.30;;;20.60;99.90;;;;;;4967584;28;20407;-76
2021/08/14 03:49:11;;;;;;;2.80;2.60;;;20.50;99.90;;;;;;4966749;28;20980;-77
2021/08/14 03:51:36;;;;;;;2.63;2.43;;;20.50;99.90;;;;;;4969946;28;20429;-76
2021/08/14 03:54:02;;;;;;;2.38;2.17;;;20.40;99.90;;;;;;4963968;28;20541;-76
2021/08/14 03:56:27;;;;;;;2.33;2.20;;;20.40;99.90;;;;;;4979638;28;20475;-77
2021/08/14 03:58:53;;;;;;;2.57;2.37;;;20.40;99.90;;;;;;4984855;28;20381;-76
2021/08/14 04:01:19;;;;;;;3.13;2.83;;;20.30;99.90;;;;;;4969812;28;21178;-77
2021/08/14 04:03:45;;;;;;;2.57;2.37;;;20.40;99.90;;;;;;4997613;28;20403;-77
2021/08/14 04:06:10;;;;;;;2.40;2.20;;;20.30;99.90;;;;;;4986919;28;20408;-77
2021/08/14 04:08:36;;;;;;;2.55;2.40;;;20.20;99.90;;;;;;4996399;28;20453;-77
2021/08/14 04:11:05;;;;;;;3.43;2.37;;;20.20;99.90;;;;;;4965393;28;20398;-77
2021/08/14 04:13:31;;;;;;;2.40;2.20;;;20.10;99.90;;;;;;4964350;28;20471;-77
2021/08/14 04:15:56;;;;;;;3.53;2.33;;;20.10;99.90;;;;;;4994119;28;20426;-77
2021/08/14 04:18:22;;;;;;;2.50;2.30;;;20.00;99.90;;;;;;4985689;28;20407;-76
2021/08/14 04:20:48;;;;;;;1.88;1.77;;;20.00;99.90;;;;;;4971974;28;20389;-76
2021/08/14 04:23:13;;;;;;;2.37;2.17;;;20.00;99.90;;;;;;4986784;28;20406;-77
2021/08/14 04:25:39;;;;;;;2.00;1.90;;;20.00;99.90;;;;;;4982668;28;20410;-77
2021/08/14 04:28:05;;;;;;;1.80;1.70;;;20.00;99.90;;;;;;4988649;28;20479;-77
2021/08/14 04:30:30;;;;;;;2.90;2.20;;;19.90;99.90;;;;;;4970866;28;20397;-77
2021/08/14 04:32:56;;;;;;;2.17;2.03;;;19.90;99.90;;;;;;4972548;28;20977;-76
2021/08/14 04:35:21;;;;;;;2.40;2.20;;;19.90;99.90;;;;;;4995068;28;20397;-77
2021/08/14 04:37:47;;;;;;;6.90;2.80;;;19.80;99.90;;;;;;4971542;28;20408;-76
2021/08/14 04:40:14;;;;;;;2.05;1.95;;;19.90;99.90;;;;;;4982453;28;20407;-76
2021/08/14 04:42:40;;;;;;;2.53;2.33;;;19.80;99.90;;;;;;4992690;28;20497;-77
2021/08/14 04:45:07;;;;;;;2.97;2.13;;;19.80;99.90;;;;;;4988298;28;20404;-77
2021/08/14 04:47:32;;;;;;;2.73;2.53;;;19.80;99.90;;;;;;4985150;28;20435;-77
2021/08/14 04:49:58;;;;;;;2.97;2.47;;;19.80;99.90;;;;;;4981295;28;20390;-77
2021/08/14 04:52:24;;;;;;;2.30;2.10;;;19.80;99.90;;;;;;4984381;28;20812;-78
2021/08/14 04:54:49;;;;;;;2.40;2.20;;;19.80;99.90;;;;;;4969794;28;20404;-77
2021/08/14 04:57:16;;;;;;;2.65;2.08;;;19.80;99.90;;;;;;4972155;28;20381;-78
2021/08/14 04:59:41;;;;;;;2.25;2.13;;;19.80;99.90;;;;;;4968224;28;20392;-77
2021/08/14 05:02:07;;;;;;;2.17;2.00;;;19.80;99.90;;;;;;4998356;28;20467;-76
2021/08/14 05:04:33;;;;;;;2.53;2.33;;;19.80;99.90;;;;;;4954477;28;20386;-77
2021/08/14 05:07:01;;;;;;;2.10;1.90;;;19.80;99.90;;;;;;4971865;28;20397;-78
2021/08/14 05:09:27;;;;;;;2.00;1.88;;;19.80;99.90;;;;;;4970769;28;20409;-77
2021/08/14 05:11:53;;;;;;;2.45;2.25;;;19.80;99.90;;;;;;4967418;28;20476;-78
2021/08/14 05:14:19;;;;;;;2.08;1.88;;;19.80;99.90;;;;;;4966591;28;20401;-76
2021/08/14 05:16:44;;;;;;;3.08;2.47;;;19.80;99.90;;;;;;4989880;28;20763;-76
2021/08/14 05:19:10;;;;;;;2.75;2.33;;;19.80;99.90;;;;;;4983245;28;20482;-78
2021/08/14 05:21:36;;;;;;;2.80;2.60;;;19.70;99.90;;;;;;4978272;28;20506;-76
2021/08/14 05:24:05;;;;;;;2.55;2.20;;;19.70;99.90;;;;;;4967107;28;20821;-76
2021/08/14 05:26:30;;;;;;;2.60;2.40;;;19.70;99.90;;;;;;5005699;28;20416;-76
2021/08/14 05:28:56;;;;;;;2.72;2.45;;;19.80;99.90;;;;;;4982911;28;21170;-76
2021/08/14 05:31:22;;;;;;;2.70;2.50;;;19.80;99.90;;;;;;5001751;28;20399;-77
2021/08/14 05:33:47;;;;;;;3.05;2.65;;;19.80;99.90;;;;;;4984009;28;20409;-77
2021/08/14 05:36:13;;;;;;;2.28;2.17;;;19.80;99.90;;;;;;5000775;28;20768;-77
2021/08/14 05:38:39;;;;;;;3.57;2.60;;;19.80;99.90;;;;;;4984162;28;20409;-78
2021/08/14 05:41:06;;;;;;;2.45;2.25;;;19.80;99.90;;;;;;4999311;28;20883;-77
2021/08/14 05:43:31;;;;;;;2.33;2.13;;;19.80;99.90;;;;;;4999055;28;20470;-77
2021/08/14 05:45:57;;;;;;;2.42;2.22;;;19.80;99.90;;;;;;4966365;28;20393;-77
2021/08/14 05:48:23;;;;;;;2.03;1.92;;;19.90;99.90;;;;;;4966922;28;20900;-77
2021/08/14 05:50:48;;;;;;;2.63;2.43;;;19.90;99.90;;;;;;4978482;28;20386;-79
2021/08/14 05:53:14;;;;;;;2.25;2.10;;;20.00;99.90;;;;;;4973836;28;20425;-77
2021/08/14 05:55:40;;;;;;;1.93;1.83;;;20.10;99.90;;;;;;4979651;28;20396;-77
2021/08/14 05:58:06;;;;;;;2.35;2.15;;;20.10;99.90;;;;;;4985876;28;20393;-77
2021/08/14 06:00:31;;;;;;;1.90;1.80;;;20.20;99.90;;;;;;4972238;28;26193;-77
2021/08/14 06:02:57;;;;;;;1.80;1.70;;;20.30;99.90;;;;;;4985867;28;21033;-77
2021/08/14 06:05:23;;;;;;;1.98;1.88;;;20.40;99.90;;;;;;4974869;28;20509;-77
2021/08/14 06:07:49;;;;;;;2.17;2.05;;;20.50;99.90;;;;;;4970766;28;20418;-77
2021/08/14 06:10:15;;;;;;;2.05;1.85;;;20.60;99.90;;;;;;4988481;28;20809;-77
2021/08/14 06:12:40;;;;;;;3.13;2.83;;;20.70;99.90;;;;;;4986362;28;20420;-78
2021/08/14 06:15:07;;;;;;;2.50;2.30;;;20.80;99.90;;;;;;4967400;28;20425;-77
2021/08/14 06:17:32;;;;;;;2.30;2.10;;;20.90;99.90;;;;;;4987652;28;20860;-77
2021/08/14 06:19:58;;;;;;;2.20;2.00;;;21.00;99.90;;;;;;4995665;28;20456;-79
2021/08/14 06:22:23;;;;;;;1.90;1.80;;;21.10;99.90;;;;;;4978891;28;20470;-76
2021/08/14 06:24:51;;;;;;;2.17;2.00;;;21.20;99.90;;;;;;4984998;28;20408;-76
2021/08/14 06:27:17;;;;;;;2.50;2.10;;;21.20;99.90;;;;;;4982504;28;20389;-77
2021/08/14 06:29:43;;;;;;;2.72;2.45;;;21.20;99.90;;;;;;4986039;28;20430;-77
2021/08/14 06:32:12;;;;;;;2.60;2.40;;;21.40;99.90;;;;;;4994892;28;20553;-76
2021/08/14 06:34:45;;;;;;;2.60;2.40;;;21.50;99.90;;;;;;4976118;28;20409;-76
2021/08/14 06:37:17;;;;;;;2.60;2.40;;;21.50;99.90;;;;;;4968467;28;20389;-80
2021/08/14 06:39:43;;;;;;;5.95;1.90;;;21.70;99.90;;;;;;5002463;28;20584;-78
2021/08/14 06:42:08;;;;;;;1.98;1.88;;;21.80;99.90;;;;;;4984083;28;20607;-77
2021/08/14 06:44:34;;;;;;;2.58;2.25;;;21.80;99.90;;;;;;4974348;28;20804;-77
2021/08/14 06:47:00;;;;;;;1.87;1.77;;;22.00;99.90;;;;;;4979715;28;20393;-77
2021/08/14 06:49:26;;;;;;;2.00;1.90;;;22.10;99.90;;;;;;4983645;28;20482;-77
2021/08/14 06:51:52;;;;;;;2.10;2.00;;;22.30;99.90;;;;;;4970013;28;20384;-77
2021/08/14 06:54:17;;;;;;;3.23;2.57;;;22.40;99.90;;;;;;4964609;28;20411;-79
2021/08/14 06:56:43;;;;;;;2.37;2.17;;;22.50;99.90;;;;;;5002120;28;20899;-79
2021/08/14 06:59:09;;;;;;;2.72;2.33;;;22.60;99.90;;;;;;4971174;28;20384;-78
2021/08/14 07:01:34;;;;;;;2.70;2.20;;;22.60;99.90;;;;;;4988520;28;20410;-78
2021/08/14 07:04:00;;;;;;;1.80;1.70;;;22.80;99.90;;;;;;4991601;28;20393;-76
2021/08/14 07:06:26;;;;;;;2.97;2.40;;;23.00;99.90;;;;;;5000159;28;20404;-79
2021/08/14 07:08:52;;;;;;;2.20;2.10;;;23.10;99.90;;;;;;4997371;28;20775;-77
2021/08/14 07:11:19;;;;;;;2.10;2.00;;;23.20;99.90;;;;;;4967797;28;20393;-78
2021/08/14 07:13:45;;;;;;;2.50;2.30;;;23.30;99.90;;;;;;5005278;28;20470;-77
2021/08/14 07:16:11;;;;;;;2.83;2.42;;;23.50;99.90;;;;;;4964308;28;20449;-77
2021/08/14 07:18:36;;;;;;;2.67;2.33;;;23.60;99.90;;;;;;4996159;28;20397;-76
2021/08/14 07:21:02;;;;;;;2.35;1.95;;;23.60;99.90;;;;;;4988071;28;20405;-78
2021/08/14 07:23:28;;;;;;;2.47;2.28;;;23.70;99.90;;;;;;5002627;28;20961;-76
2021/08/14 07:25:53;;;;;;;2.40;2.20;;;23.80;99.90;;;;;;5000467;28;20415;-77
2021/08/14 07:28:19;;;;;;;2.80;2.30;;;23.90;99.90;;;;;;4985528;28;20417;-76
2021/08/14 07:30:45;;;;;;;2.15;1.95;;;24.00;99.90;;;;;;4985464;28;20912;-76
2021/08/14 07:33:11;;;;;;;2.70;2.50;;;24.10;99.90;;;;;;5001625;28;20413;-76
2021/08/14 07:35:37;;;;;;;2.97;2.37;;;24.20;99.90;;;;;;5003075;28;20395;-76
2021/08/14 07:38:02;;;;;;;4.70;2.40;;;24.30;99.90;;;;;;5002548;28;20415;-77
2021/08/14 07:40:28;;;;;;;2.55;2.20;;;24.30;99.90;;;;;;4986807;28;21103;-76
2021/08/14 07:42:54;;;;;;;2.30;2.10;;;24.40;99.90;;;;;;4985036;28;20397;-77
2021/08/14 07:45:20;;;;;;;2.50;2.30;;;24.50;99.90;;;;;;4987080;28;20407;-77
2021/08/14 07:47:50;;;;;;;2.40;2.20;;;24.50;99.90;;;;;;4978672;28;20433;-76
2021/08/14 07:50:23;;;;;;;2.45;2.25;;;24.60;99.90;;;;;;4987730;28;20773;-77
2021/08/14 07:52:49;;;;;;;1.88;1.73;;;24.60;99.90;;;;;;4994621;28;20409;-77
2021/08/14 07:55:15;;;;;;;1.73;1.63;;;24.80;99.90;;;;;;4976267;28;20420;-77
2021/08/14 07:57:41;;;;;;;2.25;2.05;;;24.90;99.90;;;;;;4981836;28;20401;-76
2021/08/14 08:00:07;;;;;;;1.92;1.80;;;25.00;99.90;;;;;;5000163;28;20394;-76
2021/08/14 08:02:37;;;;;;;2.28;2.03;;;25.20;99.90;;;;;;4969537;28;20490;-78
2021/08/14 08:05:03;;;;;;;2.17;1.70;;;25.30;99.90;;;;;;5001289;28;21083;-77
2021/08/14 08:07:29;;;;;;;2.33;1.90;;;25.30;99.90;;;;;;4998094;28;20522;-76
2021/08/14 08:09:55;;;;;;;1.90;1.80;;;25.40;99.90;;;;;;4988202;28;21203;-76
2021/08/14 08:12:21;;;;;;;1.73;1.63;;;25.50;99.90;;;;;;5001655;28;20486;-77
2021/08/14 08:14:46;;;;;;;1.65;1.55;;;25.70;99.90;;;;;;4987241;28;20403;-77
2021/08/14 08:17:12;;;;;;;1.85;1.58;;;25.70;99.90;;;;;;4990827;28;20464;-78
2021/08/14 08:19:38;;;;;;;1.60;1.50;;;25.80;99.90;;;;;;4995571;28;20491;-77
2021/08/14 08:22:03;;;;;;;1.60;1.50;;;25.90;99.90;;;;;;5000824;28;21083;-77
2021/08/14 08:24:30;;;;;;;1.75;1.65;;;26.10;99.90;;;;;;4992526;28;20458;-77
2021/08/14 08:26:55;;;;;;;1.50;1.40;;;26.10;99.90;;;;;;4999513;28;20425;-76
2021/08/14 08:29:21;;;;;;;1.40;1.30;;;26.20;99.90;;;;;;4994534;28;20521;-77
2021/08/14 08:31:47;;;;;;;1.43;1.33;;;26.30;99.90;;;;;;5002446;28;20928;-77
2021/08/14 08:34:13;;;;;;;1.33;1.23;;;26.40;99.90;;;;;;5001007;28;20461;-77
2021/08/14 08:36:39;;;;;;;1.73;1.63;;;26.50;99.90;;;;;;5001900;28;20404;-77
2021/08/14 08:39:04;;;;;;;1.30;1.27;;;26.50;99.90;;;;;;4987113;28;20401;-76
2021/08/14 08:41:31;;;;;;;1.73;1.48;;;26.60;99.90;;;;;;4999122;28;20404;-77
2021/08/14 08:43:57;;;;;;;2.58;1.85;;;26.60;99.90;;;;;;4984910;28;20425;-78
2021/08/14 08:46:23;;;;;;;1.90;1.65;;;26.70;99.90;;;;;;5000958;28;20391;-77
2021/08/14 08:48:50;;;;;;;1.60;1.50;;;26.60;99.90;;;;;;4968824;28;20405;-77
2021/08/14 08:51:19;;;;;;;1.90;1.50;;;26.50;99.90;;;;;;4970405;28;20790;-77
2021/08/14 08:53:45;;;;;;;1.90;1.80;;;26.40;99.90;;;;;;4984069;28;20404;-77
2021/08/14 08:56:10;;;;;;;1.92;1.80;;;26.50;99.90;;;;;;4984679;28;21016;-76
2021/08/14 08:58:36;;;;;;;1.88;1.60;;;26.60;99.90;;;;;;4977586;28;20478;-77
2021/08/14 09:01:02;;;;;;;1.97;1.67;;;26.70;99.90;;;;;;4996978;28;21078;-77
2021/08/14 09:03:29;;;;;;;1.90;1.60;;;26.70;99.90;;;;;;4964143;28;20397;-77
2021/08/14 09:05:56;;;;;;;1.63;1.52;;;26.70;99.90;;;;;;4984502;28;20402;-77
2021/08/14 09:08:22;;;;;;;2.55;1.88;;;26.60;99.90;;;;;;4999778;28;20459;-77
2021/08/14 09:10:47;;;;;;;1.70;1.60;;;26.70;99.90;;;;;;4966232;28;20394;-77
2021/08/14 09:13:15;;;;;;;1.70;1.60;;;26.80;99.90;;;;;;4983714;28;20407;-77
2021/08/14 09:15:40;;;;;;;1.87;1.60;;;26.80;99.90;;;;;;4954890;28;20389;-76
2021/08/14 09:18:08;;;;;;;1.60;1.50;;;26.80;99.90;;;;;;4998778;28;20809;-78
2021/08/14 09:20:47;;;;;;;1.90;1.80;;;26.90;99.90;;;;;;4985309;28;20481;-77
2021/08/14 09:23:15;;;;;;;2.60;1.60;;;26.80;99.90;;;;;;5000042;28;20455;-76
2021/08/14 09:25:45;;;;;;;1.52;1.42;;;26.90;99.90;;;;;;4985838;28;21130;-77
2021/08/14 09:28:12;;;;;;;2.00;1.60;;;27.20;99.90;;;;;;4963954;28;20406;-76
2021/08/14 09:30:51;;;;;;;1.60;1.50;;;27.30;99.90;;;;;;4997821;28;20405;-77
2021/08/14 09:33:24;;;;;;;2.20;1.60;;;27.40;99.90;;;;;;4981014;28;20413;-76
2021/08/14 09:35:57;;;;;;;3.05;2.00;;;27.60;99.90;;;;;;4980888;28;20404;-77
2021/08/14 09:38:23;;;;;;;1.42;1.33;;;27.60;99.90;;;;;;4982294;28;20410;-77
2021/08/14 09:40:49;;;;;;;1.88;1.70;;;27.80;99.90;;;;;;4967653;28;20473;-77
2021/08/14 09:43:30;;;;;;;1.70;1.60;;;28.00;99.90;;;;;;4983284;28;20425;-77
2021/08/14 09:45:56;;;;;;;1.50;1.40;;;28.10;99.80;;;;;;4994629;28;20429;-76
2021/08/14 09:48:23;;;;;;;1.70;1.60;;;28.10;99.30;;;;;;4992426;28;21062;-78
2021/08/14 09:50:49;;;;;;;1.67;1.37;;;28.20;99.00;;;;;;4983333;28;20413;-77
2021/08/14 09:53:18;;;;;;;1.80;1.60;;;28.30;98.70;;;;;;4987788;28;20409;-76
2021/08/14 09:55:46;;;;;;;2.57;1.77;;;28.40;97.50;;;;;;5001768;28;20436;-76
2021/08/14 09:58:14;;;;;;;1.67;1.58;;;28.50;98.80;;;;;;4970186;28;20473;-76
2021/08/14 10:00:39;;;;;;;1.63;1.52;;;28.60;98.60;;;;;;4981327;28;20402;-76
2021/08/14 10:03:05;;;;;;;1.40;1.30;;;28.80;98.30;;;;;;4981969;28;20486;-76
2021/08/14 10:05:32;;;;;;;1.30;1.20;;;29.10;96.00;;;;;;4983650;28;20406;-76
2021/08/14 10:08:01;;;;;;;1.80;1.50;;;29.10;95.80;;;;;;4999326;28;20418;-76
2021/08/14 10:10:27;;;;;;;1.70;1.55;;;29.30;95.10;;;;;;4998605;28;20419;-76
2021/08/14 10:12:54;;;;;;;1.50;1.40;;;29.40;95.70;;;;;;4983489;28;20829;-77
2021/08/14 10:15:19;;;;;;;3.17;1.60;;;29.50;94.50;;;;;;4972226;28;20627;-77
2021/08/14 10:17:45;;;;;;;1.57;1.47;;;29.50;95.40;;;;;;4980500;28;20417;-77
2021/08/14 10:20:11;;;;;;;1.40;1.30;;;29.70;95.60;;;;;;4983290;28;20388;-77
2021/08/14 10:22:37;;;;;;;1.83;1.40;;;29.80;94.20;;;;;;4981756;28;20406;-76
2021/08/14 10:25:02;;;;;;;1.77;1.67;;;29.90;93.00;;;;;;4993090;28;20449;-77
2021/08/14 10:27:28;;;;;;;1.23;1.17;;;30.10;93.30;;;;;;4981736;28;20406;-76
2021/08/14 10:29:58;;;;;;;2.45;1.55;;;30.20;93.50;;;;;;4999720;28;20506;-78
2021/08/14 10:32:29;;;;;;;1.40;1.30;;;30.30;92.50;;;;;;4998204;28;20442;-77
2021/08/14 10:35:17;;;;;;;1.83;1.73;;;30.40;90.90;;;;;;5000920;28;20454;-76
2021/08/14 10:37:43;;;;;;;1.85;1.40;;;30.40;91.00;;;;;;4991431;28;20465;-76
2021/08/14 10:40:09;;;;;;;1.85;1.40;;;30.70;89.80;;;;;;5000218;28;20833;-78
2021/08/14 10:42:51;;;;;;;1.50;1.40;;;30.90;86.80;;;;;;4979944;28;20389;-77
2021/08/14 10:45:35;;;;;;;2.00;1.45;;;31.00;84.40;;;;;;4989431;28;20393;-76
2021/08/14 10:48:05;;;;;;;1.50;1.40;;;31.00;85.20;;;;;;4980287;28;20429;-77
2021/08/14 10:50:33;;;;;;;1.40;1.33;;;31.10;81.80;;;;;;4984912;28;20443;-76
2021/08/14 10:53:11;;;;;;;1.42;1.33;;;31.10;85.40;;;;;;5002353;28;20395;-76
2021/08/14 10:55:57;;;;;;;1.23;1.13;;;31.30;85.00;;;;;;4983590;28;20469;-76
2021/08/14 10:58:30;;;;;;;1.38;1.27;;;31.60;82.40;;;;;;4993345;28;21230;-76
2021/08/14 11:01:18;;;;;;;1.50;1.40;;;31.70;79.10;;;;;;4997978;28;20410;-77
2021/08/14 11:03:44;;;;;;;1.60;1.42;;;31.80;79.20;;;;;;5010843;28;20388;-77
2021/08/14 11:06:27;;;;;;;1.10;1.10;;;32.00;80.50;;;;;;4981177;28;20425;-77
2021/08/14 11:09:17;;;;;;;1.73;1.63;;;32.30;75.80;;;;;;4990466;28;20421;-78
2021/08/14 11:11:44;;;;;;;1.60;1.50;;;32.40;78.20;;;;;;5003853;28;20446;-77
2021/08/14 11:14:11;;;;;;;1.40;1.30;;;32.20;72.80;;;;;;4984431;28;20483;-77
2021/08/14 11:16:57;;;;;;;1.60;1.50;;;32.20;76.40;;;;;;4984974;28;20942;-76
2021/08/14 11:20:01;;;;;;;1.60;1.50;;;32.60;76.90;;;;;;4992863;28;20776;-77
2021/08/14 11:22:41;;;;;;;1.35;1.27;;;32.80;77.90;;;;;;4961145;28;20443;-77
2021/08/14 11:25:27;;;;;;;1.40;1.30;;;32.90;77.70;;;;;;4946906;28;20408;-77
2021/08/14 11:27:58;;;;;;;1.40;1.30;;;33.10;72.80;;;;;;4994537;28;20397;-76
2021/08/14 11:30:26;;;;;;;1.45;1.35;;;33.00;71.40;;;;;;4968807;28;20826;-77
2021/08/14 11:32:52;;;;;;;2.03;1.83;;;33.00;72.10;;;;;;4984946;28;20398;-77
2021/08/14 11:35:20;;;;;;;1.70;1.60;;;33.10;71.30;;;;;;4986130;28;20754;-76
2021/08/14 11:37:55;;;;;;;1.70;1.60;;;33.10;72.20;;;;;;4984398;28;20409;-76
2021/08/14 11:40:22;;;;;;;1.52;1.42;;;33.30;71.70;;;;;;4984055;28;20891;-78
2021/08/14 11:43:01;;;;;;;2.30;1.63;;;33.40;73.20;;;;;;4999932;28;20440;-76
2021/08/14 11:45:28;;;;;;;1.15;1.15;;;33.40;71.70;;;;;;4995133;28;20399;-76
2021/08/14 11:48:02;;;;;;;1.67;1.33;;;33.60;71.00;;;;;;5001918;28;20386;-77
2021/08/14 11:50:35;;;;;;;1.92;1.63;;;33.80;67.40;;;;;;4987290;28;20398;-77
2021/08/14 11:53:00;;;;;;;5.30;1.95;;;33.90;65.60;;;;;;5002943;28;20394;-78
2021/08/14 11:55:26;;;;;;;1.75;1.65;;;33.70;71.30;;;;;;4954033;28;20914;-77
2021/08/14 11:57:52;;;;;;;1.83;1.73;;;33.70;68.40;;;;;;4984108;28;20391;-77
2021/08/14 12:00:18;;;;;;;1.60;1.50;;;33.50;67.10;;;;;;4983873;28;20952;-76
2021/08/14 12:02:44;;;;;;;1.57;1.47;;;33.70;66.30;;;;;;5000907;28;20408;-77
2021/08/14 12:05:10;;;;;;;1.63;1.52;;;33.90;72.00;;;;;;4985711;28;20443;-77
2021/08/14 12:07:35;;;;;;;1.70;1.60;;;34.00;67.50;;;;;;4984615;28;20407;-78
2021/08/14 12:10:01;;;;;;;1.50;1.40;;;34.20;66.60;;;;;;4985251;28;20450;-76
2021/08/14 12:12:28;;;;;;;1.50;1.40;;;34.40;68.10;;;;;;4985934;28;20416;-76
2021/08/14 12:14:53;;;;;;;2.17;1.60;;;34.60;63.40;;;;;;4986533;28;20462;-76
2021/08/14 12:17:19;;;;;;;1.50;1.40;;;34.40;60.80;;;;;;4983318;28;20381;-76
2021/08/14 12:19:48;;;;;;;1.50;1.40;;;34.20;61.20;;;;;;4984641;28;20417;-77
2021/08/14 12:22:15;;;;;;;1.45;1.35;;;34.10;59.70;;;;;;4984506;28;20735;-77
2021/08/14 12:24:41;;;;;;;1.92;1.83;;;34.20;63.80;;;;;;4968880;28;20805;-77
2021/08/14 12:27:30;;;;;;;1.70;1.60;;;34.30;61.50;;;;;;4991183;28;20444;-78
2021/08/14 12:30:19;;;;;;;1.50;1.40;;;34.30;58.60;;;;;;5007258;28;20415;-77
2021/08/14 12:32:45;;;;;;;2.13;1.63;;;34.50;62.40;;;;;;4998271;28;20462;-77
2021/08/14 12:35:13;;;;;;;1.58;1.48;;;34.80;63.00;;;;;;4993827;28;20409;-77
2021/08/14 12:37:38;;;;;;;2.58;1.63;;;35.00;60.30;;;;;;4976595;28;20822;-77
2021/08/14 12:40:07;;;;;;;1.90;1.57;;;35.10;58.30;;;;;;4982656;28;20478;-77
2021/08/14 12:42:34;;;;;;;1.80;1.70;;;35.00;63.30;;;;;;5001128;28;20927;-78
2021/08/14 12:45:21;;;;;;;1.92;1.63;;;35.30;65.60;;;;;;4985677;28;20399;-77
2021/08/14 12:47:49;;;;;;;1.45;1.35;;;35.50;58.60;;;;;;5010862;28;20413;-77